createdAt,value
2022-12-28T00:02:25.250Z,9.90
2022-12-28T00:06:07.737Z,9.90
2022-12-28T00:09:49.455Z,9.90
2022-12-28T00:13:31.874Z,9.80
2022-12-28T00:17:13.587Z,9.80
2022-12-28T00:20:59.570Z,9.70
2022-12-28T00:24:41.685Z,9.70
2022-12-28T00:28:23.420Z,9.60
2022-12-28T00:32:05.371Z,9.60
2022-12-28T00:35:54.037Z,9.60
2022-12-28T00:39:35.738Z,9.50
2022-12-28T00:43:17.724Z,9.60
2022-12-28T00:46:59.472Z,9.50
2022-12-28T00:50:42.192Z,9.50
2022-12-28T00:54:23.957Z,9.50
2022-12-28T00:58:06.536Z,9.50
2022-12-28T01:01:48.327Z,9.50
2022-12-28T01:05:30.243Z,9.50
2022-12-28T01:09:12.026Z,9.50
2022-12-28T01:12:54.313Z,9.50
2022-12-28T01:16:37.103Z,9.50
2022-12-28T01:20:19.002Z,9.50
2022-12-28T01:24:02.684Z,9.40
2022-12-28T01:27:44.445Z,9.50
2022-12-28T01:31:26.975Z,9.50
2022-12-28T01:35:09.136Z,9.40
2022-12-28T01:38:56.933Z,9.40
2022-12-28T01:42:40.027Z,9.40
2022-12-28T01:46:24.536Z,9.40
2022-12-28T01:50:11.714Z,9.40
2022-12-28T01:53:55.279Z,9.40
2022-12-28T01:57:46.461Z,9.40
2022-12-28T02:01:28.467Z,9.40
2022-12-28T02:05:10.414Z,9.40
2022-12-28T02:09:10.400Z,9.40
2022-12-28T02:12:53.779Z,9.40
2022-12-28T02:16:35.901Z,9.40
2022-12-28T02:20:18.106Z,9.40
2022-12-28T02:24:16.550Z,9.40
2022-12-28T02:28:29.168Z,9.40
2022-12-28T02:32:10.859Z,9.40
2022-12-28T02:35:59.396Z,9.50
2022-12-28T02:39:48.975Z,9.50
2022-12-28T02:43:33.344Z,9.50
2022-12-28T02:47:35.189Z,9.60
2022-12-28T02:51:16.966Z,9.60
2022-12-28T02:55:29.997Z,9.60
2022-12-28T02:59:20.643Z,9.60
2022-12-28T03:03:22.542Z,9.50
2022-12-28T03:07:32.154Z,9.60
2022-12-28T03:11:19.146Z,9.60
2022-12-28T03:15:34.569Z,9.60
2022-12-28T03:19:35.199Z,9.60
2022-12-28T03:23:38.746Z,9.70
2022-12-28T03:27:40.468Z,9.70
2022-12-28T03:31:25.060Z,9.70
2022-12-28T03:35:07.045Z,9.70
2022-12-28T03:39:17.478Z,9.80
2022-12-28T03:43:22.963Z,9.80
2022-12-28T03:47:13.631Z,9.80
2022-12-28T03:50:56.024Z,9.80
2022-12-28T03:54:37.813Z,9.80
2022-12-28T03:58:21.107Z,9.90
2022-12-28T04:02:02.915Z,9.80
2022-12-28T04:05:44.680Z,9.90
2022-12-28T04:09:26.690Z,9.90
2022-12-28T04:13:08.421Z,9.90
2022-12-28T04:16:50.130Z,9.90
2022-12-28T04:20:31.920Z,9.90
2022-12-28T04:24:13.663Z,9.90
2022-12-28T04:27:55.484Z,10.00
2022-12-28T04:31:37.291Z,9.90
2022-12-28T04:35:19.080Z,10.00
2022-12-28T04:39:00.834Z,10.00
2022-12-28T04:42:42.589Z,10.10
2022-12-28T04:46:26.272Z,10.20
2022-12-28T04:50:08.389Z,10.30
2022-12-28T04:53:50.715Z,10.40
2022-12-28T04:57:32.433Z,10.50
2022-12-28T05:01:17.441Z,10.50
2022-12-28T05:04:59.287Z,10.60
2022-12-28T05:08:41.433Z,10.70
2022-12-28T05:12:23.479Z,10.70
2022-12-28T05:16:08.180Z,10.70
2022-12-28T05:19:49.968Z,10.70
2022-12-28T05:23:32.741Z,10.80
2022-12-28T05:27:14.503Z,10.80
2022-12-28T05:31:05.368Z,10.80
2022-12-28T05:34:47.003Z,10.80
2022-12-28T05:38:28.744Z,10.70
2022-12-28T05:42:10.467Z,10.70
2022-12-28T05:45:52.181Z,10.70
2022-12-28T05:49:33.892Z,10.70
2022-12-28T05:53:15.720Z,10.80
2022-12-28T05:57:00.287Z,10.70
2022-12-28T06:00:42.056Z,10.70
2022-12-28T06:04:23.910Z,10.70
2022-12-28T06:08:05.842Z,10.70
2022-12-28T06:11:47.655Z,10.70
2022-12-28T06:15:29.464Z,10.70
2022-12-28T06:19:14.678Z,10.70
2022-12-28T06:22:57.740Z,10.70
2022-12-28T06:26:40.923Z,10.70
2022-12-28T06:30:22.708Z,10.70
2022-12-28T06:34:06.924Z,10.60
2022-12-28T06:37:49.365Z,10.60
2022-12-28T06:41:31.650Z,10.60
2022-12-28T06:45:13.386Z,10.50
2022-12-28T06:48:55.795Z,10.50
2022-12-28T06:52:37.595Z,10.50
2022-12-28T06:56:25.305Z,10.50
2022-12-28T07:00:07.732Z,10.40
2022-12-28T07:03:53.071Z,10.40
2022-12-28T07:07:34.834Z,10.40
2022-12-28T07:11:19.723Z,10.40
2022-12-28T07:15:01.499Z,10.30
2022-12-28T07:18:43.828Z,10.30
2022-12-28T07:22:31.897Z,10.30
2022-12-28T07:26:16.300Z,10.30
2022-12-28T07:29:58.092Z,10.30
2022-12-28T07:33:40.755Z,10.20
2022-12-28T07:37:22.502Z,10.10
2022-12-28T07:41:09.583Z,10.10
2022-12-28T07:44:51.328Z,10.00
2022-12-28T07:48:34.440Z,10.00
2022-12-28T07:52:16.248Z,9.90
2022-12-28T07:56:01.216Z,9.80
2022-12-28T07:59:42.975Z,9.80
2022-12-28T08:03:24.772Z,9.80
2022-12-28T08:07:06.762Z,9.70
2022-12-28T08:10:48.549Z,9.70
2022-12-28T08:14:30.885Z,9.70
2022-12-28T08:18:12.651Z,9.70
2022-12-28T08:21:55.465Z,9.80
2022-12-28T08:25:37.182Z,9.70
2022-12-28T08:29:21.362Z,9.70
2022-12-28T08:33:03.117Z,9.70
2022-12-28T08:36:45.213Z,9.70
2022-12-28T08:40:29.928Z,9.70
2022-12-28T08:44:11.716Z,9.70
2022-12-28T08:47:53.996Z,9.70
2022-12-28T08:51:41.723Z,9.70
2022-12-28T08:55:23.791Z,9.60
2022-12-28T08:59:06.044Z,9.60
2022-12-28T09:02:49.601Z,9.50
2022-12-28T09:06:37.594Z,9.60
2022-12-28T09:10:19.348Z,9.50
2022-12-28T09:14:02.173Z,9.50
2022-12-28T09:17:43.935Z,9.60
2022-12-28T09:21:29.574Z,9.50
2022-12-28T09:25:11.487Z,9.60
2022-12-28T09:28:55.645Z,9.60
2022-12-28T09:32:37.473Z,9.60
2022-12-28T09:36:20.601Z,9.60
2022-12-28T09:40:02.471Z,9.60
2022-12-28T09:43:44.656Z,9.60
2022-12-28T09:47:45.900Z,9.60
2022-12-28T09:51:35.475Z,9.70
2022-12-28T09:55:18.883Z,9.60
2022-12-28T09:59:05.500Z,9.60
2022-12-28T10:03:04.139Z,9.70
2022-12-28T10:06:45.952Z,9.70
2022-12-28T10:10:28.797Z,9.70
2022-12-28T10:14:30.443Z,9.70
2022-12-28T10:18:15.076Z,9.60
2022-12-28T10:22:00.251Z,9.60
2022-12-28T10:25:42.092Z,9.70
2022-12-28T10:29:25.494Z,9.70
2022-12-28T10:33:15.538Z,9.70
2022-12-28T10:37:14.716Z,9.70
2022-12-28T10:41:00.043Z,9.70
2022-12-28T10:44:42.101Z,9.70
2022-12-28T10:48:38.661Z,9.70
2022-12-28T10:52:21.161Z,9.70
2022-12-28T10:56:13.659Z,9.80
2022-12-28T11:00:26.114Z,9.80
2022-12-28T11:04:18.586Z,9.90
2022-12-28T11:08:06.873Z,9.90
2022-12-28T11:11:50.359Z,10.00
2022-12-28T11:15:34.084Z,10.10
2022-12-28T11:19:16.566Z,10.10
2022-12-28T11:22:58.821Z,10.10
2022-12-28T11:26:44.347Z,10.20
2022-12-28T11:30:26.369Z,10.20
2022-12-28T11:34:17.201Z,10.20
2022-12-28T11:38:01.631Z,10.20
2022-12-28T11:42:10.410Z,10.30
2022-12-28T11:45:55.220Z,10.30
2022-12-28T11:49:37.052Z,10.40
2022-12-28T11:53:48.152Z,10.40
2022-12-28T11:57:40.137Z,10.50
2022-12-28T12:01:28.318Z,10.40
2022-12-28T12:05:38.257Z,10.50
2022-12-28T12:09:25.775Z,10.50
2022-12-28T12:13:25.880Z,10.50
2022-12-28T12:17:42.683Z,10.50
2022-12-28T12:21:46.672Z,10.60
2022-12-28T12:25:39.544Z,10.60
2022-12-28T12:29:44.606Z,10.60
2022-12-28T12:33:29.619Z,10.70
2022-12-28T12:37:38.577Z,10.70
2022-12-28T12:41:43.345Z,10.80
2022-12-28T12:46:09.332Z,10.80
2022-12-28T12:50:00.411Z,10.90
2022-12-28T12:53:56.070Z,11.00
2022-12-28T12:58:15.771Z,11.10
2022-12-28T13:02:16.997Z,11.20
2022-12-28T13:05:58.950Z,11.30
2022-12-28T13:09:43.424Z,11.30
2022-12-28T13:13:37.551Z,11.40
2022-12-28T13:17:21.771Z,11.50
2022-12-28T13:21:10.589Z,11.60
2022-12-28T13:24:54.365Z,11.70
2022-12-28T13:28:37.310Z,11.80
2022-12-28T13:32:38.336Z,11.90
2022-12-28T13:36:20.492Z,12.00
2022-12-28T13:40:12.449Z,12.10
2022-12-28T13:44:02.911Z,12.20
2022-12-28T13:47:49.243Z,12.20
2022-12-28T13:51:36.596Z,12.30
2022-12-28T13:55:41.587Z,12.30
2022-12-28T13:59:23.992Z,12.30
2022-12-28T14:03:09.344Z,12.30
2022-12-28T14:06:51.296Z,12.20
2022-12-28T14:10:33.435Z,12.10
2022-12-28T14:14:16.170Z,12.10
2022-12-28T14:17:58.264Z,11.90
2022-12-28T14:21:43.221Z,11.90
2022-12-28T14:25:25.094Z,11.80
2022-12-28T14:29:13.932Z,11.80
2022-12-28T14:32:56.527Z,11.70
2022-12-28T14:36:55.151Z,11.60
2022-12-28T14:40:36.931Z,11.60
2022-12-28T14:44:36.700Z,11.50
2022-12-28T14:48:32.172Z,11.40
2022-12-28T14:52:16.294Z,11.40
2022-12-28T14:56:16.208Z,11.30
2022-12-28T15:00:07.825Z,11.20
2022-12-28T15:03:58.104Z,11.10
2022-12-28T15:07:39.849Z,11.00
2022-12-28T15:11:24.487Z,10.90
2022-12-28T15:15:06.907Z,10.90
2022-12-28T15:18:49.422Z,10.80
2022-12-28T15:22:31.189Z,10.90
2022-12-28T15:26:13.846Z,10.90
2022-12-28T15:30:05.407Z,10.90
2022-12-28T15:33:48.310Z,10.90
2022-12-28T15:37:30.111Z,10.90
2022-12-28T15:41:30.658Z,10.90
2022-12-28T15:45:13.725Z,10.90
2022-12-28T15:48:55.559Z,10.80
2022-12-28T15:52:37.523Z,10.70
2022-12-28T15:56:31.495Z,10.70
2022-12-28T16:00:18.883Z,10.60
2022-12-28T16:04:02.346Z,10.50
2022-12-28T16:07:44.125Z,10.50
2022-12-28T16:11:29.337Z,10.40
2022-12-28T16:15:11.339Z,10.30
2022-12-28T16:18:57.678Z,10.30
2022-12-28T16:22:39.468Z,10.20
2022-12-28T16:26:23.192Z,10.20
2022-12-28T16:30:05.779Z,10.10
2022-12-28T16:33:47.491Z,10.10
2022-12-28T16:37:29.311Z,10.10
2022-12-28T16:41:12.427Z,10.00
2022-12-28T16:44:54.155Z,9.90
2022-12-28T16:48:37.130Z,9.80
2022-12-28T16:52:19.063Z,9.70
2022-12-28T16:56:02.794Z,9.60
2022-12-28T16:59:44.553Z,9.60
2022-12-28T17:03:26.303Z,9.60
2022-12-28T17:07:08.124Z,9.60
2022-12-28T17:10:49.882Z,9.50
2022-12-28T17:14:38.738Z,9.50
2022-12-28T17:18:20.479Z,9.50
2022-12-28T17:22:02.566Z,9.50
2022-12-28T17:25:50.936Z,9.50
2022-12-28T17:29:32.867Z,9.50
2022-12-28T17:33:15.307Z,9.50
2022-12-28T17:36:57.249Z,9.40
2022-12-28T17:40:40.134Z,9.50
2022-12-28T17:44:21.864Z,9.40
2022-12-28T17:48:04.413Z,9.30
2022-12-28T17:51:46.177Z,9.30
2022-12-28T17:55:27.925Z,9.20
2022-12-28T17:59:15.124Z,9.20
2022-12-28T18:02:57.027Z,9.20
2022-12-28T18:06:39.317Z,9.20
2022-12-28T18:10:22.623Z,9.20
2022-12-28T18:14:04.414Z,9.30
2022-12-28T18:17:46.219Z,9.20
2022-12-28T18:21:28.477Z,9.10
2022-12-28T18:25:10.238Z,9.10
2022-12-28T18:28:52.832Z,9.10
2022-12-28T18:32:34.714Z,9.10
2022-12-28T18:36:17.923Z,9.10
2022-12-28T18:40:00.200Z,9.10
2022-12-28T18:43:42.271Z,9.10
2022-12-28T18:47:24.387Z,9.10
2022-12-28T18:51:10.624Z,9.10
2022-12-28T18:54:52.386Z,9.10
2022-12-28T18:58:37.632Z,9.10
2022-12-28T19:02:20.038Z,9.20
2022-12-28T19:06:04.952Z,9.20
2022-12-28T19:10:11.609Z,9.30
2022-12-28T19:13:54.195Z,9.30
2022-12-28T19:17:35.952Z,9.40
2022-12-28T19:21:32.250Z,9.40
2022-12-28T19:25:14.054Z,9.50
2022-12-28T19:28:55.859Z,9.50
2022-12-28T19:32:37.604Z,9.50
2022-12-28T19:36:19.586Z,9.50
2022-12-28T19:40:01.421Z,9.40
2022-12-28T19:43:44.068Z,9.40
2022-12-28T19:47:25.777Z,9.30
2022-12-28T19:51:08.434Z,9.30
2022-12-28T19:54:50.138Z,9.20
2022-12-28T19:58:33.163Z,9.10
2022-12-28T20:02:15.019Z,9.10
2022-12-28T20:06:09.155Z,9.00
2022-12-28T20:09:50.857Z,9.00
2022-12-28T20:13:33.585Z,8.90
2022-12-28T20:17:15.319Z,8.90
2022-12-28T20:21:19.006Z,8.90
2022-12-28T20:25:01.972Z,8.80
2022-12-28T20:28:43.964Z,8.90
2022-12-28T20:32:25.779Z,8.90
2022-12-28T20:36:22.623Z,8.90
2022-12-28T20:40:05.752Z,8.90
2022-12-28T20:43:48.458Z,8.90
2022-12-28T20:47:30.199Z,8.90
2022-12-28T20:51:11.936Z,9.00
2022-12-28T20:54:57.288Z,8.90
2022-12-28T20:58:39.690Z,9.00
2022-12-28T21:02:21.478Z,8.90
2022-12-28T21:06:04.003Z,8.80
2022-12-28T21:09:50.671Z,8.70
2022-12-28T21:13:32.818Z,8.60
2022-12-28T21:17:14.595Z,8.50
2022-12-28T21:20:58.927Z,8.40
2022-12-28T21:24:40.651Z,8.20
2022-12-28T21:28:22.365Z,8.20
2022-12-28T21:32:04.494Z,8.10
2022-12-28T21:35:57.389Z,8.00
2022-12-28T21:39:39.152Z,7.90
2022-12-28T21:43:20.882Z,7.80
2022-12-28T21:47:02.764Z,7.70
2022-12-28T21:50:44.483Z,7.70
2022-12-28T21:54:26.874Z,7.60
2022-12-28T21:58:09.407Z,7.60
2022-12-28T22:02:10.872Z,7.60
2022-12-28T22:06:02.633Z,7.60
2022-12-28T22:10:02.659Z,7.70
2022-12-28T22:13:44.421Z,7.70
2022-12-28T22:17:26.150Z,7.80
2022-12-28T22:21:07.966Z,7.90
2022-12-28T22:24:49.766Z,7.90
2022-12-28T22:28:31.534Z,7.90
2022-12-28T22:32:13.315Z,7.90
2022-12-28T22:35:55.048Z,8.10
2022-12-28T22:39:36.833Z,8.10
2022-12-28T22:43:18.599Z,8.10
2022-12-28T22:47:00.353Z,8.20
2022-12-28T22:50:43.376Z,8.20
2022-12-28T22:54:25.278Z,8.10
2022-12-28T22:58:07.799Z,8.20
2022-12-28T23:01:49.923Z,8.20
2022-12-28T23:05:31.727Z,8.20
2022-12-28T23:09:13.428Z,8.10
2022-12-28T23:12:55.155Z,8.20
2022-12-28T23:16:36.928Z,8.10
2022-12-28T23:20:37.169Z,8.10
2022-12-28T23:24:37.720Z,8.10
2022-12-28T23:28:19.592Z,8.10
2022-12-28T23:32:01.427Z,8.10
2022-12-28T23:35:43.183Z,8.10
2022-12-28T23:39:24.919Z,8.10
2022-12-28T23:43:07.095Z,8.10
2022-12-28T23:46:52.555Z,8.00
2022-12-28T23:50:38.553Z,8.00
2022-12-28T23:54:20.530Z,7.90
2022-12-28T23:58:02.241Z,7.80
